Terminal Aerodrome Forecast
Issued by NWS Missoula, MT

Home | Current Version | Previous Version | Text Only | Print | Product List | Glossary On
Versions: 1 2 3 4 5 6 7 8 9 10 11 12 13 14 15 16 17
000
FTUS45 KMSO 231700
TAFBTM
TAF
KBTM 231725Z 2318/2418 22010KT P6SM BKN060
     FM231900 27017G24KT P6SM BKN060
     FM232000 28018G28KT P6SM -SHSN BKN035 BKN050
      TEMPO 2320/2322 3SM -SN BKN030
     FM240300 30012KT P6SM BKN050=

USA.gov is the U.S. government's official web portal to all federal, state and local government web resources and services.